This demonstration page uses our WeatherBlox Daily Observations layout. Learn more.

41.55636, -103.73856

Hourly Observations for April 16, 2019

Temp ( °F °C ) Dew Point ( °F °C ) Humidity (%) Winds ( mph kmh ) Pressure ( in mb ) Visibility ( mi km ) Precip ( " mm )
12:53 am 00:53 Clear 41 5 39 3.9 93 93 E 7 11 29.77 1008 10 16.09344 0 0
1:53 am 01:53 Clear 40 4.4 38 3.3 93 93 ESE 6 9 29.77 1008 10 16.09344 0 0
2:53 am 02:53 Clear 39 3.9 37 2.8 93 93 E 6 9 29.8 1009 10 16.09344 0 0
3:53 am 03:53 Clear 40 4.4 37 2.8 89 89 ENE 8 13 29.8 1009 10 16.09344 0 0
4:53 am 04:53 Clear 37 2.8 36 2.2 96 96 E 6 9 29.8 1009 10 16.09344 0 0
5:53 am 05:53 Clear 39 3.9 36 2.2 89 89 ESE 8 13 29.8 1009 10 16.09344 0 0
6:53 am 06:53 Sunny 37 2.8 35 1.7 93 93 ESE 8 13 29.83 1010 10 16.09344 0 0
7:53 am 07:53 Sunny 42 5.6 39 3.9 89 89 ESE 9 15 29.83 1010 10 16.09344 0 0
8:53 am 08:53 Sunny 47 8.3 40 4.4 77 77 E 10 17 29.83 1010 10 16.09344 0 0
9:53 am 09:53 Sunny 51 10.6 41 5 69 69 SE 10 17 29.8 1009 10 16.09344 0 0
10:53 am 10:53 Mostly Sunny 55 12.8 41 5 59 59 SE 10 17 29.8 1009 10 16.09344 0 0
11:53 am 11:53 Sunny 62 16.7 43 6.1 50 50 SSE 18 30 29.77 1008 10 16.09344 0 0
12:53 pm 12:53 Sunny 65 18.3 43 6.1 45 45 SSE 23 37 29.74 1007 10 16.09344 0 0
1:53 pm 13:53 Sunny 64 17.8 43 6.1 46 46 SSE 23 37 29.71 1006 10 16.09344 0 0
2:53 pm 14:53 Sunny 63 17.2 43 6.1 48 48 SE 17 28 29.71 1006 10 16.09344 0 0
3:53 pm 15:53 Sunny 65 18.3 44 6.7 47 47 SSE 13 20 29.65 1004 10 16.09344 0 0
4:53 pm 16:53 Sunny 66 18.9 44 6.7 45 45 SSE 13 20 29.65 1004 10 16.09344 0 0
5:53 pm 17:53 Sunny 64 17.8 44 6.7 48 48 SSE 14 22 29.65 1004 10 16.09344 0 0
6:53 pm 18:53 Sunny 62 16.7 45 7.2 54 54 SSW 5 7 29.68 1005 10 16.09344 0 0
7:53 pm 19:53 Mostly Clear 59 15 45 7.2 60 60 SE 6 9 29.68 1005 10 16.09344 0 0
8:53 pm 20:53 Mostly Cloudy 56 13.3 45 7.2 67 67 E 7 11 29.68 1005 10 16.09344 0 0
9:53 pm 21:53 Partly Cloudy 51 10.6 43 6.1 74 74 E 5 7 29.68 1005 10 16.09344 0 0
10:53 pm 22:53 Cloudy 52 11.1 45 7.2 77 77 NNE 9 15 29.68 1005 10 16.09344 0 0
11:53 pm 23:53 Cloudy 50 10 45 7.2 83 83 WSW 3 6 29.68 1005 10 16.09344 0 0

Powered by AerisWeather